M I D A S
Marine Information and Data Acquisition System
Tripno 709 of the Zeeleeuw from 2004-05-06 07:29:35 to 2004-05-06 13:38:23
Back to CruiseResearch ActivitiesStationsMapUnderway DataData graphs

EquipmentUnitsComment
TimeDGPSUTC
LatitudeDGPSDM.mWGS84
LongitudeDGPSDM.mWGS84
HeadingGyrodeg 
SOGDGPSknotsSpeed over ground
COGDGPSdegCourse over ground
DepthEcho soundermeters200 kHz
Missing or incorrect values are displayed as -999
Navigation data collected by the RV Zeeleeuw from 2004-05-06 07:29:35 to 2004-05-06 13:38:23
Time Latitude Longitude Heading SOG COG Depth
2004-05-06 07:30:40 51°13.574 2°56.146 126.9 3.1 121 5.9
2004-05-06 07:31:40 51°13.545 2°56.226 135.9 3.7 137 7.2
2004-05-06 07:32:40 51°13.525 2°56.248 180.7 1.1 358 7.3
2004-05-06 07:33:41 51°13.524 2°56.241 214.7 0.4 202 -999
2004-05-06 07:34:40 51°13.532 2°56.247 244.9 2.1 246 -999
2004-05-06 07:35:40 51°13.538 2°56.178 296.9 2.4 295 7.8
2004-05-06 07:36:40 51°13.548 2°56.148 307.5 0.9 308 7.6
2004-05-06 07:37:40 51°13.559 2°56.124 303.4 1.3 302 7.8
2004-05-06 07:38:40 51°13.568 2°56.097 296.4 1.1 292 7.7
2004-05-06 07:39:40 51°13.587 2°56.043 307.9 3.8 304 7.6
2004-05-06 07:40:40 51°13.638 2°55.925 310.7 6.3 305 8
2004-05-06 07:41:40 51°13.707 2°55.786 318.9 7 313 10.7
2004-05-06 07:42:40 51°13.802 2°55.666 333.6 7.4 328 8
2004-05-06 07:43:40 51°13.921 2°55.576 342.1 8.3 336 7.7
2004-05-06 07:44:40 51°14.052 2°55.482 341.7 9 336 9
2004-05-06 07:45:40 51°14.195 2°55.366 334.3 10.5 327 9.1
2004-05-06 07:46:40 51°14.323 2°55.165 313.1 11.1 306 8.6
2004-05-06 07:47:40 51°14.418 2°54.899 296.8 12.1 288 8.8
2004-05-06 07:48:40 51°14.432 2°54.566 278.6 13.2 271 8.6
2004-05-06 07:49:40 51°14.386 2°54.216 250 13.8 244 7.4
2004-05-06 07:50:40 51°14.264 2°53.9 239.6 14.1 235 7.3
2004-05-06 07:51:40 51°14.174 2°53.557 261.1 14.1 253 7.6
2004-05-06 07:52:40 51°14.052 2°53.23 242.6 14.6 238 7.9
2004-05-06 07:53:39 51°13.926 2°52.905 242.3 14.7 237 8.2
2004-05-06 07:54:40 51°13.806 2°52.556 249.4 14.8 243 8.4
2004-05-06 07:55:40 51°13.681 2°52.215 247.1 14.9 242 8.6
2004-05-06 07:56:40 51°13.545 2°51.884 238 14.9 234 8.6
2004-05-06 07:57:40 51°13.406 2°51.556 238.4 14.9 233 8.6
2004-05-06 07:58:40 51°13.267 2°51.228 242.4 14.9 237 8.6
2004-05-06 07:59:40 51°13.124 2°50.903 241.5 15 237 8.7
2004-05-06 08:00:40 51°12.983 2°50.574 238 15 234 8.6
2004-05-06 08:01:40 51°12.845 2°50.246 238.7 14.9 234 8.6
2004-05-06 08:02:40 51°12.721 2°49.905 246.1 14.9 240 8.7
2004-05-06 08:03:40 51°12.594 2°49.566 246.7 14.9 241 8.7
2004-05-06 08:04:39 51°12.469 2°49.23 244.7 15 240 8.6
2004-05-06 08:05:40 51°12.345 2°48.878 248.1 15 243 8.7
2004-05-06 08:06:40 51°12.225 2°48.53 244.1 15 240 8.8
2004-05-06 08:07:40 51°12.117 2°48.172 251.9 15 246 8.9
2004-05-06 08:08:40 51°12.023 2°47.843 259.8 10.9 255 9.4
2004-05-06 08:09:40 51°12.058 2°47.669 337.5 4.9 320 10.3
2004-05-06 08:10:40 51°12.111 2°47.654 44.4 2.6 24 10.7
2004-05-06 08:11:39 51°12.125 2°47.663 65 0.4 256 10.8
2004-05-06 08:12:40 51°12.122 2°47.656 79 0.4 227 10.8
2004-05-06 08:13:40 51°12.114 2°47.646 91.2 0.8 215 10.8
2004-05-06 08:14:39 51°12.103 2°47.633 103 1 216 10.7
2004-05-06 08:15:40 51°12.09 2°47.617 113.3 1 221 10.7
2004-05-06 08:16:40 51°12.064 2°47.614 146.9 2.9 172 10.5
2004-05-06 08:17:40 51°11.966 2°47.604 190.4 7.6 197 9.7
2004-05-06 08:18:40 51°11.843 2°47.488 212 9.1 212 8.9
2004-05-06 08:19:40 51°11.713 2°47.357 216.6 9.3 217 7.8
2004-05-06 08:20:40 51°11.598 2°47.292 158.9 5.9 160 7.1
2004-05-06 08:21:40 51°11.556 2°47.339 108.7 0.7 190 6.9
2004-05-06 08:22:41 51°11.55 2°47.316 82.6 0.9 242 -999
2004-05-06 08:23:40 51°11.543 2°47.298 74.4 0.8 238 -999
2004-05-06 08:24:40 51°11.536 2°47.283 76.5 0.6 232 7
2004-05-06 08:25:40 51°11.53 2°47.271 79.9 0.4 225 6.9
2004-05-06 08:26:40 51°11.526 2°47.27 74.1 0.1 68 6.9
2004-05-06 08:27:40 51°11.526 2°47.276 59 0.4 50 7
2004-05-06 08:28:40 51°11.535 2°47.285 47.5 1 31 7
2004-05-06 08:29:40 51°11.573 2°47.332 44.9 4.3 38 7.1
2004-05-06 08:30:40 51°11.638 2°47.406 43 4.5 36 7.4
2004-05-06 08:31:39 51°11.686 2°47.481 55.1 3.9 51 5.6
2004-05-06 08:32:40 51°11.723 2°47.555 57 3.1 51 7.8
2004-05-06 08:33:40 51°11.753 2°47.61 56.5 2.5 51 7.9
2004-05-06 08:34:39 51°11.773 2°47.661 65.3 2.2 65 8
2004-05-06 08:35:40 51°11.79 2°47.715 62.3 2.3 60 8.1
2004-05-06 08:36:40 51°11.816 2°47.763 52.1 2.6 45 8.2
2004-05-06 08:37:40 51°11.851 2°47.813 50 2.9 42 8.4
2004-05-06 08:38:40 51°11.881 2°47.874 63.2 2.9 60 8.5
2004-05-06 08:39:40 51°11.902 2°47.943 67 2.9 65 8.6
2004-05-06 08:40:40 51°11.925 2°48.009 60.9 2.8 56 8.6
2004-05-06 08:41:40 51°11.954 2°48.067 56.4 2.8 50 8.7
2004-05-06 08:42:40 51°11.98 2°48.129 63.5 2.8 60 8.8
2004-05-06 08:43:40 51°11.998 2°48.198 69.3 2.8 68 8.8
2004-05-06 08:44:40 51°12.022 2°48.259 56.7 2.7 52 8.9
2004-05-06 08:45:40 51°12.048 2°48.32 63.3 2.8 61 9
2004-05-06 08:46:40 51°12.07 2°48.384 60.2 2.7 56 8.9
2004-05-06 08:47:40 51°12.101 2°48.436 50.7 2.8 42 9.1
2004-05-06 08:48:40 51°12.128 2°48.494 62.1 2.7 58 9.1
2004-05-06 08:49:40 51°12.15 2°48.559 65 2.8 65 9.1
2004-05-06 08:50:40 51°12.17 2°48.625 65.3 2.8 63 9.1
2004-05-06 08:51:40 51°12.19 2°48.693 65.8 2.8 63 9.1
2004-05-06 08:52:40 51°12.212 2°48.76 63.8 2.8 60 9.1
2004-05-06 08:53:40 51°12.236 2°48.824 61.4 2.8 58 9.1
2004-05-06 08:54:40 51°12.261 2°48.887 62.1 2.8 59 9.1
2004-05-06 08:55:39 51°12.287 2°48.95 62 2.8 57 9.2
2004-05-06 08:56:40 51°12.312 2°49.014 62.2 2.8 58 9.2
2004-05-06 08:57:40 51°12.337 2°49.077 61.8 2.8 57 9.2
2004-05-06 08:58:40 51°12.36 2°49.14 63.8 2.7 60 9.2
2004-05-06 08:59:40 51°12.378 2°49.202 68.2 2.5 67 9.2
2004-05-06 09:00:40 51°12.39 2°49.26 71.8 1.9 75 9.2
2004-05-06 09:01:40 51°12.394 2°49.3 75.7 1.3 85 9.1
2004-05-06 09:02:40 51°12.392 2°49.331 84.8 1 105 9
2004-05-06 09:03:40 51°12.385 2°49.351 94 0.8 132 9
2004-05-06 09:04:40 51°12.374 2°49.365 100.9 0.8 151 8.9
2004-05-06 09:05:40 51°12.361 2°49.373 105.7 0.8 163 8.8
2004-05-06 09:06:40 51°12.351 2°49.392 86.3 1.6 95 8.8
2004-05-06 09:07:40 51°12.373 2°49.444 54.9 3.1 49 8.7
2004-05-06 09:08:40 51°12.409 2°49.521 60.5 3.9 56 8.8
2004-05-06 09:09:39 51°12.449 2°49.606 54.6 4.2 48 8.8
2004-05-06 09:10:40 51°12.5 2°49.689 53.9 4.3 47 9
2004-05-06 09:11:40 51°12.549 2°49.774 54.3 4.3 47 9.1
2004-05-06 09:12:40 51°12.599 2°49.856 53.6 4.2 46 9.2
2004-05-06 09:13:40 51°12.647 2°49.936 53.7 4.2 46 9.3
2004-05-06 09:14:40 51°12.696 2°50.017 53.8 4.2 47 9.5
2004-05-06 09:15:39 51°12.743 2°50.099 58.2 4.2 51 9.6
2004-05-06 09:16:40 51°12.786 2°50.188 58.7 4.2 53 9.7
2004-05-06 09:17:40 51°12.83 2°50.275 58.2 4.2 52 9.7
2004-05-06 09:18:40 51°12.874 2°50.365 59.2 4.3 52 9.8
2004-05-06 09:19:40 51°12.916 2°50.456 59.9 4.3 53 9.8
2004-05-06 09:20:40 51°12.958 2°50.547 58.8 4.3 54 9.9
2004-05-06 09:21:39 51°13.001 2°50.635 57.3 4.3 51 9.9
2004-05-06 09:22:40 51°13.045 2°50.728 58.9 4.3 53 10
2004-05-06 09:23:40 51°13.089 2°50.821 57.5 4.3 52 10
2004-05-06 09:24:40 51°13.135 2°50.911 57.5 4.3 52 10.1
2004-05-06 09:25:40 51°13.179 2°51 57.8 4.3 52 10.1
2004-05-06 09:26:40 51°13.223 2°51.091 57.8 4.3 51 10.2
2004-05-06 09:27:40 51°13.265 2°51.183 60.8 4.3 55 10.2
2004-05-06 09:28:40 51°13.304 2°51.28 61.8 4.3 56 10.1
2004-05-06 09:29:40 51°13.344 2°51.375 61.7 4.3 57 10.1
2004-05-06 09:30:40 51°13.385 2°51.47 61.6 4.3 57 10.1
2004-05-06 09:31:40 51°13.425 2°51.565 60.9 4.3 56 10.2
2004-05-06 09:32:40 51°13.465 2°51.66 61.1 4.3 56 10.2
2004-05-06 09:33:40 51°13.503 2°51.756 61.7 4.3 57 10.2
2004-05-06 09:34:40 51°13.543 2°51.851 60.7 4.3 56 10.2
2004-05-06 09:35:40 51°13.582 2°51.947 61.9 4.3 58 10.2
2004-05-06 09:36:40 51°13.621 2°52.043 60.9 4.3 57 10.2
2004-05-06 09:37:40 51°13.66 2°52.14 61.6 4.4 58 10.2
2004-05-06 09:38:40 51°13.7 2°52.237 60.9 4.4 57 10.2
2004-05-06 09:39:40 51°13.74 2°52.335 61.6 4.4 56 10.2
2004-05-06 09:40:40 51°13.78 2°52.433 61.1 4.4 57 10.2
2004-05-06 09:41:40 51°13.819 2°52.532 62.2 4.5 58 10.1
2004-05-06 09:42:40 51°13.86 2°52.632 60.9 4.5 57 10.1
2004-05-06 09:43:39 51°13.897 2°52.731 60.8 4.5 56 10.2
2004-05-06 09:44:40 51°13.95 2°52.856 60.9 8.9 57 9.9
2004-05-06 09:45:40 51°14.057 2°53.108 61.2 12.2 56 9.6
2004-05-06 09:46:40 51°14.163 2°53.39 70.3 12.4 67 9.3
2004-05-06 09:47:40 51°14.239 2°53.698 74 12.5 70 9
2004-05-06 09:48:40 51°14.303 2°54.014 74.7 12.5 71 8.7
2004-05-06 09:49:40 51°14.379 2°54.323 68.4 12.6 64 8.8
2004-05-06 09:50:40 51°14.434 2°54.647 86.7 12.8 84 9.8
2004-05-06 09:51:40 51°14.392 2°54.976 116.3 12.4 115 10.1
2004-05-06 09:52:40 51°14.288 2°55.238 132.1 10.2 128 10.8
2004-05-06 09:53:40 51°14.187 2°55.397 145.3 7.6 141 10.7
2004-05-06 09:54:40 51°14.092 2°55.484 159.9 6.1 156 10.4
2004-05-06 09:55:40 51°13.992 2°55.548 160.9 6.6 157 10.7
2004-05-06 09:56:41 51°13.889 2°55.608 165.4 6.6 160 9.2
2004-05-06 09:57:40 51°13.787 2°55.664 159.6 6.5 154 9.7
2004-05-06 09:58:40 51°13.714 2°55.77 135.6 5.7 130 12.3
2004-05-06 09:59:40 51°13.66 2°55.891 125.3 5.5 120 8.8
2004-05-06 10:00:40 51°13.624 2°55.996 125.4 3.8 121 9.8
2004-05-06 10:01:40 51°13.6 2°56.08 112.5 2.5 107 8
2004-05-06 10:02:39 51°13.596 2°56.097 127.3 0.2 134 6.8
2004-05-06 10:03:40 51°13.596 2°56.098 129.2   51 6.8
2004-05-06 10:04:40 51°13.596 2°56.097 129.9   70 6.8
2004-05-06 10:05:40 51°13.596 2°56.097 129.8   44 5.2
2004-05-06 10:06:41 51°13.596 2°56.098 128.3   243 6.6
2004-05-06 10:07:40 51°13.595 2°56.098 128.3   18 6.8
2004-05-06 10:08:39 51°13.595 2°56.097 128.2   43 6.8
2004-05-06 10:09:40 51°13.595 2°56.097 128.1   346 6.8
2004-05-06 10:10:39 51°13.596 2°56.097 128.1   62 6.9
2004-05-06 10:11:40 51°13.596 2°56.096 128.1   158 7
2004-05-06 10:12:40 51°13.597 2°56.097 127.9   334 6.9
2004-05-06 10:13:40 51°13.596 2°56.096 127.5   329 6.9
2004-05-06 10:14:41 51°13.595 2°56.095 127.3   304 7
2004-05-06 10:15:39 51°13.596 2°56.096 127.2   323 6.9
2004-05-06 10:16:40 51°13.596 2°56.095 127.1   51 7
2004-05-06 10:17:40 51°13.596 2°56.094 127.1   44 6.9
2004-05-06 10:18:41 51°13.596 2°56.094 127   220 7
2004-05-06 10:19:40 51°13.596 2°56.094 127   301 7
2004-05-06 10:20:40 51°13.595 2°56.093 126.9   206 7
2004-05-06 10:21:40 51°13.595 2°56.094 126.8   218 7.1
2004-05-06 10:22:40 51°13.595 2°56.094 126.8   1 7.1
2004-05-06 10:23:40 51°13.596 2°56.094 126.7   277 7.1
2004-05-06 10:24:40 51°13.598 2°56.097 126.7   53 7
2004-05-06 10:25:40 51°13.599 2°56.099 126.6   254 7
2004-05-06 10:26:40 51°13.597 2°56.096 126.6   21 7.1
2004-05-06 10:27:40 51°13.596 2°56.096 126.6   119 7.1
2004-05-06 10:28:41 51°13.596 2°56.096 127.3   20 7.2
2004-05-06 10:29:39 51°13.595 2°56.097 127.3   51 7.2
2004-05-06 10:30:40 51°13.596 2°56.098 127.3   271 7.2
2004-05-06 10:31:40 51°13.597 2°56.097 126.3   1 7.3
2004-05-06 10:32:41 51°13.597 2°56.097 126.2   352 7.2
2004-05-06 10:33:40 51°13.598 2°56.098 126.2   73 5.5
2004-05-06 10:34:42 51°13.598 2°56.097 126.2   159 7.3
2004-05-06 10:35:41 51°13.598 2°56.098 126.2   104 7.2
2004-05-06 10:36:41 51°13.598 2°56.097 126.3   68 7.3
2004-05-06 10:37:40 51°13.597 2°56.097 126.3   338 7.4
2004-05-06 10:38:41 51°13.597 2°56.096 126.3   194 7.4
2004-05-06 10:39:40 51°13.597 2°56.097 126.3   228 7.4
2004-05-06 10:40:42 51°13.596 2°56.098 126.2   216 7.5
2004-05-06 10:41:42 51°13.596 2°56.097 126.3   306 7.4
2004-05-06 10:42:42 51°13.596 2°56.098 126.3   355 7.4
2004-05-06 10:43:41 51°13.596 2°56.098 126.3   110 5.6
2004-05-06 10:44:42 51°13.595 2°56.099 126.3   198 5.6
2004-05-06 10:45:41 51°13.596 2°56.1 126.3   200 7.5
2004-05-06 10:46:42 51°13.596 2°56.1 126.4   152 -999
2004-05-06 10:47:41 51°13.595 2°56.098 126.4   353 7.6
2004-05-06 10:48:42 51°13.595 2°56.097 126.4   193 7.6
2004-05-06 10:49:41 51°13.595 2°56.099 126.4   153 7.6
2004-05-06 10:50:42 51°13.595 2°56.1 126.4   145 5.6
2004-05-06 10:51:41 51°13.595 2°56.099 126.7   119 7.7
2004-05-06 10:52:40 51°13.594 2°56.097 127   109 7.7
2004-05-06 10:53:42 51°13.596 2°56.098 127   265 7.7
2004-05-06 10:54:40 51°13.596 2°56.097 127   215 5.7
2004-05-06 10:55:40 51°13.596 2°56.097 127.1   221 7.8
2004-05-06 10:56:40 51°13.596 2°56.097 127   5 7.8
2004-05-06 10:57:41 51°13.596 2°56.097 126.9   223 7.9
2004-05-06 10:58:41 51°13.596 2°56.097 126.9   8 7.9
2004-05-06 10:59:41 51°13.597 2°56.098 126.9   87 7.9
2004-05-06 11:00:42 51°13.598 2°56.099 127   143 7.9
2004-05-06 11:01:42 51°13.597 2°56.097 127   100 8
2004-05-06 11:02:40 51°13.597 2°56.097 126.9   291 8
2004-05-06 11:03:40 51°13.597 2°56.097 126.8   146 8.1
2004-05-06 11:04:42 51°13.597 2°56.098 126.9   347 8.1
2004-05-06 11:05:41 51°13.598 2°56.098 126.9   184 8.1
2004-05-06 11:06:42 51°13.598 2°56.096 127   255 8.1
2004-05-06 11:07:42 51°13.597 2°56.096 127   150 8
2004-05-06 11:08:40 51°13.598 2°56.096 127   29 8.2
2004-05-06 11:09:42 51°13.597 2°56.096 127   150 8.2
2004-05-06 11:10:42 51°13.598 2°56.098 127   206 8.2
2004-05-06 11:11:40 51°13.597 2°56.097 127   114 8.3
2004-05-06 11:12:42 51°13.597 2°56.098 127   114 8.3
2004-05-06 11:13:40 51°13.597 2°56.097 127   169 8.4
2004-05-06 11:14:42 51°13.597 2°56.096 127   150 8.3
2004-05-06 11:15:40 51°13.597 2°56.096 127   161 8.4
2004-05-06 11:16:42 51°13.597 2°56.098 127   205 8.4
2004-05-06 11:17:42 51°13.597 2°56.097 127.1   68 8.5
2004-05-06 11:18:42 51°13.598 2°56.099 126.9   155 8.5
2004-05-06 11:19:42 51°13.598 2°56.098 127   153 8.6
2004-05-06 11:20:42 51°13.598 2°56.099 127.1   199 8.7
2004-05-06 11:21:40 51°13.597 2°56.099 127.1   222 8.7
2004-05-06 11:22:42 51°13.597 2°56.1 126.9   124 8.7
2004-05-06 11:23:41 51°13.597 2°56.1 127.8   165 8.8
2004-05-06 11:24:40 51°13.598 2°56.099 128.1   147 8.8
2004-05-06 11:25:42 51°13.598 2°56.099 128.1   137 8.8
2004-05-06 11:26:42 51°13.598 2°56.098 126.2   232 8.8
2004-05-06 11:27:42 51°13.599 2°56.097 125.9   163 8.9
2004-05-06 11:28:42 51°13.598 2°56.098 126.9   62 9
2004-05-06 11:29:42 51°13.597 2°56.096 117.7 0.5 288 9.1
2004-05-06 11:30:42 51°13.619 2°56.017 119.6 4.2 294 -999
2004-05-06 11:31:43 51°13.657 2°55.9 119.8 5.2 297 -999
2004-05-06 11:32:42 51°13.679 2°55.773 94.4 4.4 273 -999
2004-05-06 11:33:41 51°13.687 2°55.749 45.8 2.6 34 15.4
2004-05-06 11:34:42 51°13.746 2°55.726 323.8 3.9 321 11.5
2004-05-06 11:35:42 51°13.83 2°55.638 336.9 7.4 332 12
2004-05-06 11:36:42 51°13.951 2°55.554 341.3 8 336 13.5
2004-05-06 11:37:42 51°14.073 2°55.465 341.2 8.1 335 13
2004-05-06 11:38:42 51°14.211 2°55.348 332.9 10.3 325 13.2
2004-05-06 11:39:42 51°14.333 2°55.139 313.3 11.3 307 13.6
2004-05-06 11:40:42 51°14.461 2°54.905 302.7 12.2 303 12.7
2004-05-06 11:41:42 51°14.577 2°54.629 303.4 12.5 303 12.5
2004-05-06 11:42:42 51°14.676 2°54.339 295.1 12.5 295 12.7
2004-05-06 11:43:42 51°14.688 2°54.033 255.2 11.3 249 13.3
2004-05-06 11:44:42 51°14.519 2°53.888 209.3 11.9 201 12.6
2004-05-06 11:45:42 51°14.336 2°53.76 214.1 12.1 206 12.3
2004-05-06 11:46:42 51°14.176 2°53.584 232.3 11.6 226 12.1
2004-05-06 11:47:42 51°14.048 2°53.353 234.3 11.7 228 12.2
2004-05-06 11:48:41 51°13.921 2°53.127 234.1 11.6 229 12.3
2004-05-06 11:49:41 51°13.817 2°52.871 247.3 11.6 244 12.6
2004-05-06 11:50:42 51°13.717 2°52.603 240.5 11.6 237 12.8
2004-05-06 11:51:42 51°13.608 2°52.35 240.4 11.6 235 13
2004-05-06 11:52:41 51°13.502 2°52.101 240.6 11.5 236 13.1
2004-05-06 11:53:42 51°13.392 2°51.846 240.5 11.5 235 13
2004-05-06 11:54:42 51°13.284 2°51.597 240.3 11.4 235 12.9
2004-05-06 11:55:42 51°13.176 2°51.349 241.1 11.3 236 12.9
2004-05-06 11:56:41 51°13.07 2°51.106 240.3 11.3 235 12.9
2004-05-06 11:57:42 51°12.96 2°50.857 240.5 11.3 235 12.9
2004-05-06 11:58:42 51°12.852 2°50.612 240.6 11.3 235 12.9
2004-05-06 11:59:42 51°12.744 2°50.367 240.3 11.3 235 12.7
2004-05-06 12:00:42 51°12.636 2°50.121 240.5 11.4 235 12.6
2004-05-06 12:01:41 51°12.527 2°49.879 240.2 11.4 233 12.5
2004-05-06 12:02:40 51°12.423 2°49.634 243.9 11.3 239 12.4
2004-05-06 12:03:42 51°12.325 2°49.365 244.8 11.4 239 12.5
2004-05-06 12:04:41 51°12.231 2°49.11 244.4 11.3 239 12.4
2004-05-06 12:05:42 51°12.126 2°48.854 241.2 11.4 235 12.3
2004-05-06 12:06:40 51°12.026 2°48.609 242.9 11.5 238 12.2
2004-05-06 12:07:42 51°11.923 2°48.341 242.9 11.5 237 12.2
2004-05-06 12:08:42 51°11.813 2°48.089 240.3 11.6 235 11.9
2004-05-06 12:09:41 51°11.709 2°47.856 238.9 8.9 232 11.8
2004-05-06 12:10:40 51°11.65 2°47.766 245.1 2 235 11.8
2004-05-06 12:11:42 51°11.652 2°47.779 243.9 0.7 74 11.9
2004-05-06 12:12:42 51°11.656 2°47.799 244.2 0.9 63 11.8
2004-05-06 12:13:40 51°11.662 2°47.822 249.3 1.1 68 11.8
2004-05-06 12:14:42 51°11.671 2°47.85 254.4 1.2 60 11.9
2004-05-06 12:15:42 51°11.681 2°47.878 259.9 1.3 59 11.9
2004-05-06 12:16:42 51°11.693 2°47.909 265.1 1.4 58 11.9
2004-05-06 12:17:40 51°11.705 2°47.939 270.5 1.4 60 11.9
2004-05-06 12:18:39 51°11.717 2°47.973 273.9 1.5 58 12
2004-05-06 12:19:42 51°11.731 2°48.003 269.2 1.1 48 12
2004-05-06 12:20:42 51°11.74 2°48.018 251.8 0.6 50 12.1
2004-05-06 12:21:42 51°11.741 2°48.026 243.2 0.2 84 12.1
2004-05-06 12:22:42 51°11.738 2°48.025 245 0.6 245 12.1
2004-05-06 12:23:41 51°11.748 2°47.994 283.9 1.8 317 12.1
2004-05-06 12:24:42 51°11.787 2°47.972 321.3 3 355 12.3
2004-05-06 12:25:42 51°11.847 2°47.991 359.9 4 20 12.6
2004-05-06 12:26:40 51°11.905 2°48.041 20.7 4.1 35 13
2004-05-06 12:27:40 51°11.954 2°48.114 42.6 4 50 13.2
2004-05-06 12:28:42 51°11.994 2°48.201 54.4 3.8 56 13.4
2004-05-06 12:29:42 51°12.027 2°48.284 55.3 3.7 59 13.4
2004-05-06 12:30:42 51°12.058 2°48.368 60 3.6 60 13.4
2004-05-06 12:31:42 51°12.087 2°48.452 64.8 3.6 62 13.4
2004-05-06 12:32:42 51°12.113 2°48.538 68.1 3.6 64 13.4
2004-05-06 12:33:42 51°12.139 2°48.624 71 3.6 65 13.4
2004-05-06 12:34:42 51°12.164 2°48.71 71.7 3.5 65 13.3
2004-05-06 12:35:42 51°12.188 2°48.794 72.7 3.5 66 13.3
2004-05-06 12:36:42 51°12.211 2°48.876 70.9 3.4 65 13.2
2004-05-06 12:37:41 51°12.235 2°48.956 67.6 3.5 61 13.2
2004-05-06 12:38:42 51°12.262 2°49.037 66.1 3.4 61 13.2
2004-05-06 12:39:42 51°12.287 2°49.115 65.8 3.4 62 13.2
2004-05-06 12:40:42 51°12.313 2°49.193 66.4 3.4 62 13.2
2004-05-06 12:41:42 51°12.337 2°49.271 65.6 3.3 63 13.2
2004-05-06 12:42:42 51°12.363 2°49.347 65 3.4 60 13.1
2004-05-06 12:43:40 51°12.387 2°49.421 66.7 3.2 62 13.1
2004-05-06 12:44:41 51°12.412 2°49.499 66.6 3.3 62 13.1
2004-05-06 12:45:42 51°12.437 2°49.576 65.5 3.2 62 13.1
2004-05-06 12:46:42 51°12.463 2°49.65 63.6 3.2 61 13.1
2004-05-06 12:47:42 51°12.488 2°49.724 63.7 3.2 61 13.1
2004-05-06 12:48:42 51°12.514 2°49.798 62.5 3.2 61 13.1
2004-05-06 12:49:42 51°12.541 2°49.871 60.7 3.2 60 13.1
2004-05-06 12:50:42 51°12.568 2°49.943 57.7 3.2 59 13.1
2004-05-06 12:51:42 51°12.596 2°50.013 54.8 3.1 57 13.1
2004-05-06 12:52:42 51°12.625 2°50.083 53.7 3.1 57 13.1
2004-05-06 12:53:42 51°12.654 2°50.154 54.2 3.1 58 13.2
2004-05-06 12:54:41 51°12.682 2°50.224 58.8 3.1 58 13.2
2004-05-06 12:55:42 51°12.71 2°50.296 53.7 3.2 57 13.2
2004-05-06 12:56:42 51°12.739 2°50.366 51.2 3.2 56 13.2
2004-05-06 12:57:40 51°12.768 2°50.436 49 3.2 56 13.2
2004-05-06 12:58:40 51°12.798 2°50.505 46.2 3.2 56 13.3
2004-05-06 12:59:42 51°12.829 2°50.575 43.6 3.2 54 13.3
2004-05-06 13:00:42 51°12.86 2°50.643 42 3.2 53 13.4
2004-05-06 13:01:41 51°12.891 2°50.708 40.8 3.2 53 13.4
2004-05-06 13:02:40 51°12.92 2°50.775 58.7 3.1 58 13.5
2004-05-06 13:03:41 51°12.944 2°50.849 73.3 3 65 13.4
2004-05-06 13:04:42 51°12.965 2°50.923 74.7 3.1 66 13.4
2004-05-06 13:05:42 51°12.994 2°51.014 64.5 5.7 59 13.3
2004-05-06 13:06:42 51°13.054 2°51.124 41.1 4.9 46 13.4
2004-05-06 13:07:42 51°13.107 2°51.205 34.9 4.1 45 13.5
2004-05-06 13:08:42 51°13.152 2°51.276 33.2 3.7 45 13.5
2004-05-06 13:09:42 51°13.192 2°51.343 35.4 3.4 49 13.6
2004-05-06 13:10:39 51°13.262 2°51.459 47.5 9.4 46 13.6
2004-05-06 13:11:42 51°13.41 2°51.661 39 9.4 39 13.9
2004-05-06 13:12:42 51°13.506 2°51.757 13.3 5.6 27 14.1
2004-05-06 13:13:42 51°13.576 2°51.8 351.5 4 19 14.2
2004-05-06 13:14:42 51°13.636 2°51.831 357.8 4.1 23 14.3
2004-05-06 13:15:42 51°13.694 2°51.898 35.7 4.6 43 14.4
2004-05-06 13:16:42 51°13.75 2°51.993 47.6 5 50 14.4
2004-05-06 13:17:40 51°13.801 2°52.098 54.4 5.3 53 14.4
2004-05-06 13:18:42 51°13.855 2°52.217 57.4 5.4 56 14.3
2004-05-06 13:19:42 51°13.902 2°52.341 69 5.5 62 14.4
2004-05-06 13:20:42 51°13.939 2°52.472 77.4 5.5 67 14.3
2004-05-06 13:21:42 51°13.974 2°52.604 75.4 5.4 66 14.3
2004-05-06 13:22:41 51°14.015 2°52.73 66.3 5.4 60 14.2
2004-05-06 13:23:42 51°14.063 2°52.854 63 5.4 58 14
2004-05-06 13:24:42 51°14.11 2°52.977 63.4 5.4 58 13.9
2004-05-06 13:25:42 51°14.156 2°53.102 69.5 5.4 61 13.7
2004-05-06 13:26:42 51°14.196 2°53.231 73.6 5.4 65 13.6
2004-05-06 13:27:40 51°14.236 2°53.356 71.2 5.5 63 13.4
2004-05-06 13:28:41 51°14.279 2°53.486 69.5 5.5 61 13.3
2004-05-06 13:29:42 51°14.324 2°53.615 69.5 5.4 61 13.3
2004-05-06 13:30:42 51°14.37 2°53.75 71.2 6.7 63 13.3
2004-05-06 13:31:42 51°14.441 2°53.982 73.3 11.2 66 13.1
2004-05-06 13:32:42 51°14.477 2°54.297 100.7 13 91 13.6
2004-05-06 13:33:42 51°14.463 2°54.649 107.5 13.3 97 14
2004-05-06 13:34:41 51°14.401 2°54.978 124.7 13 114 13.9
2004-05-06 13:35:42 51°14.282 2°55.225 133.3 9.8 129 14.2
2004-05-06 13:36:41 51°14.185 2°55.375 147.2 7.7 141 14.6
2004-05-06 13:37:42 51°14.076 2°55.474 158.5 7.3 154 14.1